METAR Data
IDs: Format: Raw Decoded Include TAF

Data at: 0338 UTC 06 Dec 2019

METAR for:KEBS (Webster City Muni, IA, US)
Text:KEBS 060315Z AUTO 34016KT 10SM CLR 00/M00 A3004 RMK AO2
Temperature: 0.0°C ( 32°F)
Dewpoint: 0.0°C ( 32°F) [RH = 100%]
Pressure (altimeter):30.04 inches Hg (1017.4 mb)
Winds:from the NNW (340 degrees) at 18 MPH (16 knots; 8.2 m/s)
Visibility:10 or more sm (16+ km)
Ceiling:at least 12,000 feet AGL
Clouds:sky clear below 12,000 feet AGL
QC Flag:automated observation with no human augmentation